Time;durP1;ratioP1;P1;durP2;ratioP2;P2;SDS_P1;SDS_P2;PMS_P1;PMS_P2;Temp;Humidity;BMP_temperature;BMP_pressure;BME280_temperature;BME280_humidity;BME280_pressure;Samples;Min_cycle;Max_cycle;Signal;HPM_P1;HPM_P2
2023/09/09 00:00:36;;;;;;;6.10;3.80;;;18.80;99.90;;;;;;5014697;28;20046;-76
2023/09/09 00:03:02;;;;;;;6.82;3.28;;;18.90;99.90;;;;;;4980988;28;20380;-76
2023/09/09 00:05:30;;;;;;;5.45;3.20;;;18.80;99.90;;;;;;5014685;28;20108;-76
2023/09/09 00:07:56;;;;;;;5.85;3.63;;;18.70;99.90;;;;;;5014654;28;20401;-75
2023/09/09 00:10:21;;;;;;;5.72;3.33;;;18.70;99.90;;;;;;5014878;28;20042;-75
2023/09/09 00:12:48;;;;;;;6.00;3.30;;;18.70;99.90;;;;;;5014904;28;20037;-76
2023/09/09 00:15:14;;;;;;;4.45;2.88;;;18.70;99.90;;;;;;5014576;28;20046;-75
2023/09/09 00:17:39;;;;;;;6.05;3.10;;;18.60;99.90;;;;;;4995362;28;20072;-76
2023/09/09 00:20:09;;;;;;;5.28;3.10;;;18.60;99.90;;;;;;5014347;28;20402;-75
2023/09/09 00:22:34;;;;;;;6.60;3.10;;;18.50;99.90;;;;;;5014416;28;20045;-75
2023/09/09 00:25:00;;;;;;;5.00;3.13;;;18.50;99.90;;;;;;5014736;28;20367;-76
2023/09/09 00:27:25;;;;;;;6.90;3.60;;;18.50;99.90;;;;;;5014200;28;20045;-75
2023/09/09 00:29:51;;;;;;;6.28;4.00;;;18.50;99.90;;;;;;4995009;28;20395;-75
2023/09/09 00:32:16;;;;;;;5.35;3.10;;;18.50;99.90;;;;;;4994319;28;20461;-75
2023/09/09 00:34:42;;;;;;;5.85;3.13;;;18.40;99.90;;;;;;4993226;28;20506;-75
2023/09/09 00:37:08;;;;;;;4.78;3.00;;;18.40;99.90;;;;;;4994583;28;20092;-75
2023/09/09 00:39:34;;;;;;;4.35;2.80;;;18.40;99.90;;;;;;4994666;28;20100;-75
2023/09/09 00:41:59;;;;;;;4.68;2.83;;;18.40;99.90;;;;;;4960905;28;20566;-75
2023/09/09 00:44:25;;;;;;;5.07;2.90;;;18.40;99.90;;;;;;4993405;28;20049;-75
2023/09/09 00:46:51;;;;;;;5.65;3.40;;;18.40;99.90;;;;;;4994410;28;20040;-75
2023/09/09 00:49:17;;;;;;;4.72;3.10;;;18.30;99.90;;;;;;4994215;28;20053;-76
2023/09/09 00:51:44;;;;;;;5.13;2.92;;;18.30;99.90;;;;;;4994417;28;20042;-76
2023/09/09 00:54:11;;;;;;;5.60;3.03;;;18.30;99.90;;;;;;4944829;28;20049;-76
2023/09/09 00:56:37;;;;;;;5.78;3.03;;;18.30;99.90;;;;;;4960606;28;20118;-75
2023/09/09 00:59:03;;;;;;;5.53;2.85;;;18.20;99.90;;;;;;4994619;28;20058;-75
2023/09/09 01:01:31;;;;;;;5.40;2.65;;;18.20;99.90;;;;;;4994075;28;20042;-75
2023/09/09 01:03:57;;;;;;;10.98;3.33;;;18.20;99.90;;;;;;4993543;28;20525;-75
2023/09/09 01:06:23;;;;;;;5.80;3.38;;;18.20;99.90;;;;;;4994051;28;20475;-75
2023/09/09 01:08:49;;;;;;;6.35;3.30;;;18.10;99.90;;;;;;4994123;28;20157;-75
2023/09/09 01:11:14;;;;;;;6.88;4.53;;;18.10;99.90;;;;;;4993998;28;20117;-75
2023/09/09 01:13:40;;;;;;;8.77;4.50;;;18.10;99.90;;;;;;4993985;28;20125;-75
2023/09/09 01:16:07;;;;;;;6.13;3.65;;;18.10;99.90;;;;;;4992973;28;20046;-75
2023/09/09 01:18:34;;;;;;;6.90;3.75;;;18.10;99.90;;;;;;4976420;28;20097;-76
2023/09/09 01:21:19;;;;;;;6.60;3.80;;;18.10;99.90;;;;;;4996127;28;20573;-75
2023/09/09 01:23:45;;;;;;;6.07;4.13;;;18.10;99.90;;;;;;5013450;28;20041;-75
2023/09/09 01:26:10;;;;;;;8.82;5.90;;;18.00;99.90;;;;;;5013449;28;20513;-75
2023/09/09 01:28:36;;;;;;;9.27;6.75;;;18.00;99.90;;;;;;4995886;28;20041;-75
2023/09/09 01:31:02;;;;;;;10.63;7.43;;;17.90;99.90;;;;;;4995717;28;20038;-76
2023/09/09 01:33:28;;;;;;;8.20;6.00;;;17.90;99.90;;;;;;5013291;28;20061;-75
2023/09/09 01:35:53;;;;;;;7.28;4.38;;;17.90;99.90;;;;;;5013342;28;20117;-76
2023/09/09 01:38:19;;;;;;;8.45;4.93;;;18.00;99.90;;;;;;5013348;28;20045;-76
2023/09/09 01:40:44;;;;;;;7.18;4.43;;;17.90;99.90;;;;;;5013346;28;20042;-76
2023/09/09 01:43:10;;;;;;;7.00;4.72;;;17.90;99.90;;;;;;5013289;28;20038;-75
2023/09/09 01:45:36;;;;;;;8.80;5.53;;;17.90;99.90;;;;;;5013213;28;20041;-75
2023/09/09 01:48:01;;;;;;;7.53;5.53;;;17.90;99.90;;;;;;5013339;28;20053;-75
2023/09/09 01:50:27;;;;;;;8.43;5.95;;;17.90;99.90;;;;;;5013219;28;20437;-75
2023/09/09 01:52:53;;;;;;;8.60;6.00;;;17.80;99.90;;;;;;5013167;28;20103;-75
2023/09/09 01:55:18;;;;;;;9.32;6.50;;;17.80;99.90;;;;;;4979522;28;20103;-75
2023/09/09 01:57:44;;;;;;;9.77;7.55;;;17.80;99.90;;;;;;5013231;28;20052;-75
2023/09/09 02:00:11;;;;;;;10.85;8.55;;;17.70;99.90;;;;;;5013102;28;20073;-75
2023/09/09 02:02:37;;;;;;;11.55;9.00;;;17.70;99.90;;;;;;5013161;28;20052;-76
2023/09/09 02:05:03;;;;;;;8.70;5.65;;;17.70;99.90;;;;;;5013068;28;20129;-75
2023/09/09 02:07:28;;;;;;;9.15;5.53;;;17.70;99.90;;;;;;4995490;28;20042;-75
2023/09/09 02:09:54;;;;;;;8.48;5.63;;;17.70;99.90;;;;;;5013045;28;20113;-75
2023/09/09 02:12:19;;;;;;;7.45;4.75;;;17.70;99.90;;;;;;5012862;28;20038;-75
2023/09/09 02:14:45;;;;;;;6.65;4.78;;;17.70;99.90;;;;;;5013309;28;20068;-75
2023/09/09 02:17:12;;;;;;;7.85;4.78;;;17.60;99.90;;;;;;4999449;28;20383;-75
2023/09/09 02:19:38;;;;;;;7.82;4.97;;;17.60;99.90;;;;;;5016698;28;20482;-75
2023/09/09 02:22:04;;;;;;;8.65;5.60;;;17.60;99.90;;;;;;5016746;28;20171;-75
2023/09/09 02:24:30;;;;;;;7.43;4.85;;;17.50;99.90;;;;;;5016582;28;20494;-75
2023/09/09 02:26:56;;;;;;;8.68;5.15;;;17.50;99.90;;;;;;5016523;28;20045;-75
2023/09/09 02:29:21;;;;;;;7.70;4.65;;;17.50;99.90;;;;;;4998913;28;20046;-75
2023/09/09 02:31:47;;;;;;;9.55;4.80;;;17.50;99.90;;;;;;5016733;28;20033;-75
2023/09/09 02:34:12;;;;;;;8.85;4.22;;;17.40;99.90;;;;;;5016269;28;20062;-75
2023/09/09 02:36:44;;;;;;;7.57;4.50;;;17.50;99.90;;;;;;4999217;28;20042;-75
2023/09/09 02:39:10;;;;;;;7.78;4.72;;;17.40;99.90;;;;;;4998831;28;20514;-75
2023/09/09 02:41:36;;;;;;;7.40;4.47;;;17.40;99.90;;;;;;5016320;28;20124;-75
2023/09/09 02:44:01;;;;;;;6.82;4.30;;;17.40;99.90;;;;;;5016135;28;20151;-75
2023/09/09 02:46:27;;;;;;;8.75;4.75;;;17.30;99.90;;;;;;5016391;28;20474;-75
2023/09/09 02:48:52;;;;;;;7.78;4.65;;;17.40;99.90;;;;;;4998648;28;20050;-75
2023/09/09 02:51:18;;;;;;;9.45;5.43;;;17.30;99.90;;;;;;5016231;28;20151;-75
2023/09/09 02:53:43;;;;;;;10.90;6.97;;;17.30;99.90;;;;;;5016073;28;20044;-75
2023/09/09 02:56:09;;;;;;;12.88;9.20;;;17.30;99.90;;;;;;5016121;28;20549;-75
2023/09/09 02:58:34;;;;;;;11.77;8.82;;;17.30;99.90;;;;;;4998449;28;20068;-75
2023/09/09 03:01:05;;;;;;;11.50;7.03;;;17.30;99.90;;;;;;5016208;28;20113;-75
2023/09/09 03:03:31;;;;;;;11.48;7.97;;;17.30;99.90;;;;;;5015978;28;20045;-75
2023/09/09 03:05:57;;;;;;;8.38;4.97;;;17.30;99.90;;;;;;4998305;28;20046;-75
2023/09/09 03:08:23;;;;;;;9.93;5.35;;;17.30;99.90;;;;;;4998293;28;20054;-75
2023/09/09 03:10:49;;;;;;;8.88;5.88;;;17.30;99.90;;;;;;5015823;28;20049;-75
2023/09/09 03:13:14;;;;;;;7.30;4.95;;;17.20;99.90;;;;;;4998259;28;20050;-75
2023/09/09 03:15:40;;;;;;;9.43;6.65;;;17.20;99.90;;;;;;5015884;28;20042;-75
2023/09/09 03:18:05;;;;;;;9.98;7.35;;;17.20;99.90;;;;;;5015765;28;20046;-75
2023/09/09 03:20:31;;;;;;;12.40;8.32;;;17.20;99.90;;;;;;4998119;28;20108;-75
2023/09/09 03:22:59;;;;;;;12.57;8.95;;;17.20;99.90;;;;;;5015622;28;20042;-76
2023/09/09 03:25:24;;;;;;;11.45;8.30;;;17.20;99.90;;;;;;4997796;28;20038;-75
2023/09/09 03:27:50;;;;;;;11.05;8.70;;;17.20;99.90;;;;;;4997628;28;20442;-75
2023/09/09 03:30:15;;;;;;;13.02;9.90;;;17.20;99.90;;;;;;4997887;28;20398;-75
2023/09/09 03:32:41;;;;;;;15.27;11.32;;;17.20;99.90;;;;;;4997679;28;20387;-75
2023/09/09 03:35:07;;;;;;;11.70;9.38;;;17.20;99.90;;;;;;5015449;28;20116;-76
2023/09/09 03:37:33;;;;;;;13.25;10.60;;;17.20;99.90;;;;;;5015338;28;20096;-75
2023/09/09 03:39:58;;;;;;;14.40;12.18;;;17.20;99.90;;;;;;5015219;28;20030;-75
2023/09/09 03:42:24;;;;;;;13.27;10.60;;;17.20;99.90;;;;;;5015081;28;20034;-75
2023/09/09 03:44:49;;;;;;;14.95;11.52;;;17.20;99.90;;;;;;5015272;28;20121;-76
2023/09/09 03:47:15;;;;;;;15.18;10.45;;;17.20;99.90;;;;;;4981228;28;20414;-76
2023/09/09 03:49:40;;;;;;;10.68;7.78;;;17.20;99.90;;;;;;5015241;28;20444;-76
2023/09/09 03:52:06;;;;;;;12.43;9.43;;;17.10;99.90;;;;;;5015132;28;20510;-76
2023/09/09 03:54:32;;;;;;;9.60;7.10;;;17.20;99.90;;;;;;5014879;28;20038;-75
2023/09/09 03:56:57;;;;;;;9.95;6.55;;;17.20;99.90;;;;;;4997350;28;20034;-75
2023/09/09 03:59:24;;;;;;;8.02;4.90;;;17.20;99.90;;;;;;5015036;28;20077;-75
2023/09/09 04:01:49;;;;;;;7.25;5.13;;;17.10;99.90;;;;;;5014964;28;20414;-75
2023/09/09 04:04:15;;;;;;;8.82;5.32;;;17.10;99.90;;;;;;5014762;28;20116;-76
2023/09/09 04:06:40;;;;;;;7.95;5.32;;;17.10;99.90;;;;;;5014804;28;20038;-77
2023/09/09 04:09:06;;;;;;;9.07;6.78;;;17.00;99.90;;;;;;5014597;28;20517;-76
2023/09/09 04:11:31;;;;;;;8.23;5.97;;;17.00;99.90;;;;;;4997002;28;20414;-75
2023/09/09 04:13:59;;;;;;;10.23;7.05;;;16.90;99.90;;;;;;5014757;28;20441;-75
2023/09/09 04:16:25;;;;;;;12.50;8.93;;;16.90;99.90;;;;;;5014625;28;20095;-75
2023/09/09 04:18:50;;;;;;;11.82;9.40;;;16.80;99.90;;;;;;4997255;28;20037;-76
2023/09/09 04:21:16;;;;;;;13.13;10.15;;;16.80;99.90;;;;;;5014537;28;20048;-75
2023/09/09 04:23:41;;;;;;;13.90;10.63;;;16.80;99.90;;;;;;5014365;28;20461;-75
2023/09/09 04:26:07;;;;;;;12.90;9.68;;;16.80;99.90;;;;;;5014349;28;20048;-75
2023/09/09 04:28:32;;;;;;;16.17;12.45;;;16.80;99.90;;;;;;5014429;28;20049;-76
2023/09/09 04:30:58;;;;;;;16.65;13.68;;;16.80;99.90;;;;;;5014473;28;20045;-75
2023/09/09 04:33:24;;;;;;;17.70;12.63;;;16.90;99.90;;;;;;5013925;28;20395;-75
2023/09/09 04:35:49;;;;;;;17.52;13.40;;;16.90;99.90;;;;;;4996619;28;20046;-75
2023/09/09 04:38:15;;;;;;;19.02;14.35;;;16.90;99.90;;;;;;4995911;28;20056;-75
2023/09/09 04:40:41;;;;;;;16.05;13.48;;;16.90;99.90;;;;;;4996600;28;20121;-75
2023/09/09 04:43:07;;;;;;;15.65;13.95;;;16.90;99.90;;;;;;5014180;28;20064;-75
2023/09/09 04:45:32;;;;;;;15.98;13.65;;;16.90;99.90;;;;;;5014100;28;20046;-76
2023/09/09 04:47:58;;;;;;;18.83;15.30;;;16.90;99.90;;;;;;5014091;28;20399;-76
2023/09/09 04:50:23;;;;;;;16.92;14.63;;;16.90;99.90;;;;;;4996515;28;20122;-76
2023/09/09 04:52:49;;;;;;;13.98;11.77;;;16.90;99.90;;;;;;4980224;28;20034;-75
2023/09/09 04:55:15;;;;;;;15.40;11.38;;;16.90;99.90;;;;;;5013699;28;20064;-76
2023/09/09 04:57:41;;;;;;;14.98;11.90;;;16.90;99.90;;;;;;5013896;28;20042;-76
2023/09/09 05:00:07;;;;;;;15.73;12.23;;;16.90;99.90;;;;;;5013952;28;20121;-75
2023/09/09 05:02:34;;;;;;;12.82;9.95;;;16.90;99.90;;;;;;5013854;28;20108;-75
2023/09/09 05:05:03;;;;;;;12.52;8.93;;;16.90;99.90;;;;;;5013743;28;20034;-76
2023/09/09 05:07:31;;;;;;;11.65;8.68;;;17.00;99.90;;;;;;5013597;28;20050;-75
2023/09/09 05:09:56;;;;;;;9.77;7.45;;;16.90;99.90;;;;;;5013700;28;20406;-76
2023/09/09 05:12:22;;;;;;;10.60;8.68;;;16.90;99.90;;;;;;5013807;28;20133;-76
2023/09/09 05:14:47;;;;;;;11.00;8.82;;;16.90;99.90;;;;;;4996247;28;20555;-76
2023/09/09 05:17:13;;;;;;;13.63;10.52;;;16.80;99.90;;;;;;5013751;28;20041;-76
2023/09/09 05:19:38;;;;;;;10.95;8.02;;;16.80;99.90;;;;;;4996083;28;20052;-76
2023/09/09 05:22:04;;;;;;;13.00;8.73;;;16.80;99.90;;;;;;5013475;28;20544;-75
2023/09/09 05:24:29;;;;;;;10.35;8.50;;;16.80;99.90;;;;;;5013308;28;20046;-76
2023/09/09 05:26:55;;;;;;;10.85;8.85;;;16.80;99.90;;;;;;5013635;28;20042;-76
2023/09/09 05:29:21;;;;;;;11.80;8.93;;;16.70;99.90;;;;;;5013363;28;20133;-76
2023/09/09 05:31:47;;;;;;;12.70;8.70;;;16.70;99.90;;;;;;5013645;28;20045;-76
2023/09/09 05:34:12;;;;;;;12.05;9.45;;;16.70;99.90;;;;;;5013252;28;20192;-76
2023/09/09 05:36:38;;;;;;;13.18;10.48;;;16.70;99.90;;;;;;5013418;28;20053;-76
2023/09/09 05:39:04;;;;;;;12.77;10.32;;;16.70;99.90;;;;;;4995847;28;20077;-75
2023/09/09 05:41:29;;;;;;;13.48;10.50;;;16.70;99.90;;;;;;5013487;28;20431;-75
2023/09/09 05:43:55;;;;;;;13.88;10.88;;;16.70;99.90;;;;;;5013279;28;20186;-75
2023/09/09 05:46:21;;;;;;;14.23;12.13;;;16.70;99.90;;;;;;5013432;28;20088;-75
2023/09/09 05:48:47;;;;;;;14.27;11.77;;;16.70;99.90;;;;;;5012402;28;20117;-76
2023/09/09 05:51:12;;;;;;;14.02;11.38;;;16.80;99.90;;;;;;5017276;28;20116;-76
2023/09/09 05:53:39;;;;;;;14.82;12.02;;;16.80;99.90;;;;;;5017150;28;20038;-75
2023/09/09 05:56:05;;;;;;;16.13;13.57;;;16.80;99.90;;;;;;5017078;28;20536;-76
2023/09/09 05:58:30;;;;;;;15.93;13.32;;;16.90;99.90;;;;;;5017248;28;20037;-76
2023/09/09 06:00:56;;;;;;;14.35;12.10;;;16.90;99.90;;;;;;5017438;28;20042;-76
2023/09/09 06:03:21;;;;;;;16.65;13.80;;;16.90;99.90;;;;;;5017100;28;20050;-75
2023/09/09 06:05:47;;;;;;;16.15;12.95;;;17.00;99.90;;;;;;4999324;28;20038;-76
2023/09/09 06:08:13;;;;;;;16.17;14.48;;;17.00;99.90;;;;;;5016881;28;20049;-75
2023/09/09 06:10:38;;;;;;;20.50;16.20;;;17.10;99.90;;;;;;5016933;28;20041;-75
2023/09/09 06:13:04;;;;;;;18.10;15.43;;;17.10;99.90;;;;;;5017028;28;20490;-76
2023/09/09 06:15:29;;;;;;;19.98;17.23;;;17.20;99.90;;;;;;4999168;28;20478;-76
2023/09/09 06:17:57;;;;;;;22.13;18.35;;;17.30;99.90;;;;;;4999233;28;20498;-75
2023/09/09 06:20:23;;;;;;;17.90;16.00;;;17.30;99.90;;;;;;5016751;28;20092;-75
2023/09/09 06:22:48;;;;;;;25.77;20.77;;;17.30;99.90;;;;;;5016616;28;20081;-75
2023/09/09 06:25:14;;;;;;;22.05;18.95;;;17.40;99.90;;;;;;4999039;28;20116;-75
2023/09/09 06:27:40;;;;;;;22.48;19.33;;;17.40;99.90;;;;;;5016503;28;20107;-75
2023/09/09 06:30:06;;;;;;;19.40;17.23;;;17.50;99.90;;;;;;4998823;28;20034;-75
2023/09/09 06:32:31;;;;;;;19.60;16.23;;;17.50;99.90;;;;;;4998723;28;20072;-75
2023/09/09 06:34:57;;;;;;;20.75;17.70;;;17.60;99.90;;;;;;5016459;28;20074;-75
2023/09/09 06:37:23;;;;;;;22.75;19.05;;;17.70;99.90;;;;;;5016338;28;20579;-75
2023/09/09 06:39:49;;;;;;;24.02;21.08;;;17.70;99.90;;;;;;4998764;28;20038;-75
2023/09/09 06:42:14;;;;;;;23.60;19.13;;;17.80;99.90;;;;;;5016408;28;20103;-75
2023/09/09 06:44:40;;;;;;;23.73;20.70;;;17.80;99.90;;;;;;4998591;28;20133;-75
2023/09/09 06:47:06;;;;;;;23.67;20.58;;;18.00;99.90;;;;;;5016272;28;20069;-75
2023/09/09 06:49:31;;;;;;;23.00;20.50;;;18.00;99.90;;;;;;5016157;28;20042;-75
2023/09/09 06:51:57;;;;;;;24.92;22.23;;;18.10;99.90;;;;;;4998698;28;20041;-75
2023/09/09 06:54:22;;;;;;;26.42;22.13;;;18.20;99.90;;;;;;5016303;28;20073;-75
2023/09/09 06:56:48;;;;;;;24.73;22.13;;;18.30;99.90;;;;;;5016158;28;20398;-75
2023/09/09 06:59:13;;;;;;;25.90;21.98;;;18.40;99.90;;;;;;5016130;28;20122;-75
2023/09/09 07:01:39;;;;;;;27.30;22.38;;;18.50;99.90;;;;;;5015091;28;20080;-75
2023/09/09 07:04:05;;;;;;;22.77;20.05;;;18.50;99.90;;;;;;5015896;28;20033;-75
2023/09/09 07:06:30;;;;;;;23.35;20.70;;;18.60;99.90;;;;;;4998162;28;20077;-75
2023/09/09 07:08:56;;;;;;;23.92;21.27;;;18.80;99.90;;;;;;4998246;28;20073;-76
2023/09/09 07:11:22;;;;;;;23.95;21.35;;;18.90;99.90;;;;;;5015764;28;20394;-75
2023/09/09 07:13:47;;;;;;;25.10;21.70;;;19.00;99.90;;;;;;5015848;28;20037;-75
2023/09/09 07:16:13;;;;;;;25.30;21.60;;;19.00;99.90;;;;;;5015602;28;20053;-75
2023/09/09 07:18:38;;;;;;;23.85;21.35;;;19.20;99.90;;;;;;5015734;28;20042;-75
2023/09/09 07:21:04;;;;;;;26.30;22.08;;;19.30;99.90;;;;;;5015608;28;20120;-75
2023/09/09 07:23:29;;;;;;;27.13;22.45;;;19.40;99.90;;;;;;5015610;28;20038;-75
2023/09/09 07:25:55;;;;;;;26.55;23.00;;;19.60;99.90;;;;;;4998102;28;20037;-75
2023/09/09 07:28:23;;;;;;;26.42;22.75;;;19.70;99.90;;;;;;4997904;28;20042;-75
2023/09/09 07:30:48;;;;;;;28.33;25.20;;;19.80;99.90;;;;;;5015433;28;20038;-76
2023/09/09 07:33:14;;;;;;;27.05;24.05;;;19.90;99.90;;;;;;4997716;28;20104;-75
2023/09/09 07:35:41;;;;;;;30.05;24.73;;;20.00;99.90;;;;;;5015160;28;20100;-75
2023/09/09 07:38:07;;;;;;;28.98;24.38;;;20.10;99.90;;;;;;5015541;28;20045;-75
2023/09/09 07:40:33;;;;;;;29.50;26.05;;;20.20;99.90;;;;;;5015155;28;20049;-75
2023/09/09 07:42:59;;;;;;;31.02;27.02;;;20.30;99.90;;;;;;5015259;28;20125;-76
2023/09/09 07:45:24;;;;;;;28.55;25.55;;;20.30;99.90;;;;;;4997520;28;20482;-75
2023/09/09 07:47:50;;;;;;;27.60;24.42;;;20.40;99.90;;;;;;4997502;28;20046;-75
2023/09/09 07:50:15;;;;;;;29.45;26.45;;;20.50;99.90;;;;;;5014995;28;20075;-75
2023/09/09 07:52:41;;;;;;;29.92;26.70;;;20.60;99.90;;;;;;4997494;28;20049;-76
2023/09/09 07:55:07;;;;;;;28.77;25.70;;;20.70;99.90;;;;;;4997426;28;20037;-75
2023/09/09 07:57:33;;;;;;;30.73;27.42;;;20.70;99.90;;;;;;5014855;28;20494;-75
2023/09/09 08:00:00;;;;;;;31.58;27.45;;;20.80;99.90;;;;;;4997370;28;20056;-75
2023/09/09 08:02:25;;;;;;;29.35;26.25;;;20.90;99.90;;;;;;5013689;28;20041;-75
2023/09/09 08:04:51;;;;;;;31.75;27.50;;;20.90;99.90;;;;;;5014694;28;20064;-76
2023/09/09 08:07:17;;;;;;;29.50;26.40;;;20.90;99.90;;;;;;5014828;28;20034;-75
2023/09/09 08:09:42;;;;;;;28.63;25.65;;;21.00;99.90;;;;;;5014844;28;20510;-76
2023/09/09 08:12:08;;;;;;;30.77;27.30;;;21.10;99.90;;;;;;5014643;28;20529;-76
2023/09/09 08:14:33;;;;;;;29.98;26.92;;;21.20;99.90;;;;;;5014612;28;20049;-76
2023/09/09 08:16:59;;;;;;;32.08;28.58;;;21.30;99.90;;;;;;5014518;28;20038;-76
2023/09/09 08:19:24;;;;;;;30.58;27.25;;;21.40;99.90;;;;;;5014434;28;20096;-76
2023/09/09 08:21:50;;;;;;;32.40;27.80;;;21.40;99.90;;;;;;5014710;28;20046;-76
2023/09/09 08:24:16;;;;;;;30.85;26.67;;;21.50;99.90;;;;;;5014430;28;20148;-76
2023/09/09 08:26:41;;;;;;;32.13;28.60;;;21.60;99.90;;;;;;4996880;28;20037;-76
2023/09/09 08:29:07;;;;;;;31.27;27.80;;;21.70;99.90;;;;;;5014391;28;20046;-76
2023/09/09 08:31:32;;;;;;;34.28;30.30;;;21.80;99.90;;;;;;5014341;28;20049;-76
2023/09/09 08:33:58;;;;;;;36.10;32.30;;;21.90;99.90;;;;;;4993199;28;20053;-76
2023/09/09 08:36:25;;;;;;;36.58;32.30;;;21.90;99.90;;;;;;4993322;28;20069;-76
2023/09/09 08:38:56;;;;;;;35.65;31.05;;;22.00;99.90;;;;;;4993594;28;20380;-76
2023/09/09 08:41:48;;;;;;;36.25;32.33;;;22.10;99.90;;;;;;4994687;28;20045;-76
2023/09/09 08:44:42;;;;;;;40.72;34.22;;;22.30;99.90;;;;;;4994456;28;20120;-76
2023/09/09 08:47:09;;;;;;;39.72;35.45;;;22.40;99.90;;;;;;4992744;28;20377;-76
2023/09/09 08:49:36;;;;;;;37.78;33.80;;;22.40;99.90;;;;;;4994473;28;20121;-76
2023/09/09 08:52:06;;;;;;;40.08;35.90;;;22.50;99.90;;;;;;4993295;28;20480;-76
2023/09/09 08:54:32;;;;;;;38.70;34.65;;;22.60;99.90;;;;;;4993196;28;20161;-76
2023/09/09 08:56:59;;;;;;;37.10;33.30;;;22.70;99.90;;;;;;4994139;28;20113;-76
2023/09/09 08:59:25;;;;;;;39.83;35.75;;;22.70;99.90;;;;;;4993311;28;20042;-76
2023/09/09 09:01:51;;;;;;;39.20;35.20;;;22.90;99.90;;;;;;4994368;28;20034;-76
2023/09/09 09:04:18;;;;;;;41.65;37.15;;;23.00;99.90;;;;;;4992837;28;20046;-76
2023/09/09 09:06:47;;;;;;;38.20;34.08;;;23.00;99.90;;;;;;4994110;28;20042;-76
2023/09/09 09:09:15;;;;;;;37.92;34.00;;;23.00;99.90;;;;;;4993927;28;20561;-76
2023/09/09 09:11:42;;;;;;;37.50;33.38;;;23.20;99.90;;;;;;4994058;28;20034;-76
2023/09/09 09:14:08;;;;;;;38.28;34.17;;;23.20;99.90;;;;;;4994226;28;20046;-76
2023/09/09 09:16:41;;;;;;;36.92;33.17;;;23.30;99.90;;;;;;4992739;28;20455;-76
2023/09/09 09:19:27;;;;;;;37.40;33.47;;;23.40;99.90;;;;;;4992889;28;20101;-76
2023/09/09 09:21:54;;;;;;;38.25;34.38;;;23.40;99.90;;;;;;4993616;28;20141;-76
2023/09/09 09:24:27;;;;;;;38.17;34.35;;;23.60;99.90;;;;;;4993432;28;20513;-76
2023/09/09 09:26:58;;;;;;;38.47;34.38;;;23.60;99.90;;;;;;4992844;28;20100;-76
2023/09/09 09:29:24;;;;;;;37.40;33.47;;;23.80;99.90;;;;;;4993873;28;20046;-76
2023/09/09 09:31:51;;;;;;;36.00;32.17;;;23.90;99.90;;;;;;4993816;28;20041;-76
2023/09/09 09:34:18;;;;;;;36.45;32.78;;;23.90;99.90;;;;;;5010148;28;20125;-76
2023/09/09 09:36:45;;;;;;;36.83;32.95;;;24.00;99.90;;;;;;4995707;28;20050;-76
2023/09/09 09:39:10;;;;;;;36.92;32.90;;;24.10;99.90;;;;;;5013530;28;20053;-76
2023/09/09 09:41:39;;;;;;;35.92;32.17;;;24.20;99.90;;;;;;5013255;28;20042;-76
2023/09/09 09:44:16;;;;;;;34.75;31.02;;;24.20;99.90;;;;;;5013356;28;20046;-76
2023/09/09 09:46:41;;;;;;;31.90;28.73;;;24.30;99.90;;;;;;5013190;28;20367;-76
2023/09/09 09:49:10;;;;;;;34.28;30.67;;;24.30;99.90;;;;;;5013386;28;20045;-76
2023/09/09 09:51:43;;;;;;;37.20;33.42;;;24.40;99.90;;;;;;5013235;28;20069;-76
2023/09/09 09:54:08;;;;;;;35.80;32.08;;;24.50;99.90;;;;;;5013296;28;20037;-76
2023/09/09 09:56:36;;;;;;;35.33;31.80;;;24.50;99.90;;;;;;5013225;28;20505;-76
2023/09/09 09:59:02;;;;;;;34.42;31.02;;;24.50;99.90;;;;;;5013137;28;20479;-77
2023/09/09 10:01:29;;;;;;;35.83;31.75;;;24.60;99.90;;;;;;5013362;28;20072;-77
2023/09/09 10:04:02;;;;;;;35.60;32.08;;;24.60;99.90;;;;;;5013343;28;20108;-76
2023/09/09 10:06:29;;;;;;;36.28;31.58;;;24.70;99.90;;;;;;5013074;28;20046;-76
2023/09/09 10:09:19;;;;;;;33.20;29.88;;;24.70;99.90;;;;;;5013036;28;20042;-76
2023/09/09 10:11:56;;;;;;;31.83;28.52;;;24.70;99.90;;;;;;5013065;28;20037;-76
2023/09/09 10:14:25;;;;;;;31.38;27.33;;;24.70;99.90;;;;;;4995467;28;20124;-77
2023/09/09 10:16:53;;;;;;;30.63;27.33;;;24.90;99.90;;;;;;5013095;28;20038;-77
2023/09/09 10:19:19;;;;;;;29.38;26.38;;;24.90;99.90;;;;;;5013009;28;20042;-77
2023/09/09 10:21:47;;;;;;;27.20;24.33;;;24.90;99.90;;;;;;5013059;28;20046;-77
2023/09/09 10:24:14;;;;;;;27.63;24.73;;;24.90;99.90;;;;;;5012971;28;20116;-76
2023/09/09 10:26:41;;;;;;;26.48;23.75;;;25.00;99.90;;;;;;4995396;28;20494;-77
2023/09/09 10:29:07;;;;;;;26.38;23.67;;;25.00;99.90;;;;;;5013016;28;20068;-76
2023/09/09 10:31:35;;;;;;;28.92;26.02;;;25.10;99.90;;;;;;4979543;28;20116;-76
2023/09/09 10:34:02;;;;;;;30.48;27.33;;;25.20;99.90;;;;;;4979044;28;20057;-76
2023/09/09 10:36:30;;;;;;;28.10;25.15;;;25.20;99.90;;;;;;5013086;28;20050;-76
2023/09/09 10:38:56;;;;;;;26.05;23.40;;;25.20;99.90;;;;;;5016462;28;20557;-77
2023/09/09 10:41:22;;;;;;;24.45;22.02;;;25.20;99.90;;;;;;5016417;28;20479;-76
2023/09/09 10:43:47;;;;;;;23.05;20.85;;;25.30;99.90;;;;;;5016565;28;20041;-76
2023/09/09 10:46:13;;;;;;;21.77;19.48;;;25.30;99.90;;;;;;4998778;28;20037;-76
2023/09/09 10:48:42;;;;;;;21.55;19.23;;;25.40;99.90;;;;;;5016106;28;20095;-77
2023/09/09 10:51:07;;;;;;;21.90;19.23;;;25.40;99.90;;;;;;5016244;28;20084;-76
2023/09/09 10:53:33;;;;;;;20.05;18.10;;;25.50;99.90;;;;;;5016090;28;20037;-76
2023/09/09 10:56:23;;;;;;;20.08;17.55;;;25.40;99.90;;;;;;5016374;28;20164;-77
2023/09/09 10:58:51;;;;;;;22.25;18.73;;;25.50;99.90;;;;;;5016230;28;20038;-77
2023/09/09 11:01:27;;;;;;;19.67;16.88;;;25.60;99.90;;;;;;5016131;28;20046;-78
2023/09/09 11:03:53;;;;;;;18.73;16.85;;;25.50;99.90;;;;;;4998377;28;20064;-77
2023/09/09 11:06:24;;;;;;;20.98;16.45;;;25.50;99.90;;;;;;5016141;28;20042;-77
2023/09/09 11:08:56;;;;;;;18.15;15.57;;;25.60;99.90;;;;;;4998235;28;20131;-76
2023/09/09 11:11:37;;;;;;;20.50;16.58;;;25.50;99.90;;;;;;5015951;28;20042;-77
2023/09/09 11:14:07;;;;;;;19.70;17.67;;;25.60;99.90;;;;;;5016046;28;20049;-77
2023/09/09 11:16:41;;;;;;;18.70;16.40;;;25.60;99.90;;;;;;5015619;28;20041;-76
2023/09/09 11:19:10;;;;;;;17.48;15.35;;;25.60;99.90;;;;;;5015840;28;20042;-76
2023/09/09 11:21:47;;;;;;;19.42;15.40;;;25.70;99.90;;;;;;5015821;28;20034;-76
2023/09/09 11:24:13;;;;;;;17.75;15.68;;;25.70;99.90;;;;;;5015669;28;20056;-77
2023/09/09 11:26:42;;;;;;;17.88;15.98;;;25.80;99.90;;;;;;4997999;28;20052;-77
2023/09/09 11:29:09;;;;;;;18.20;14.80;;;25.80;99.90;;;;;;5015385;28;20564;-77
2023/09/09 11:31:34;;;;;;;17.13;15.30;;;25.80;99.90;;;;;;5015387;28;20483;-77
2023/09/09 11:34:00;;;;;;;17.15;15.05;;;25.80;99.90;;;;;;5015331;28;20065;-77
2023/09/09 11:36:26;;;;;;;19.30;14.65;;;25.80;99.90;;;;;;5015334;28;20506;-77
2023/09/09 11:38:55;;;;;;;19.25;17.13;;;25.90;99.90;;;;;;4997718;28;20077;-77
2023/09/09 11:41:22;;;;;;;20.08;14.80;;;25.90;99.90;;;;;;5015159;28;20081;-77
2023/09/09 11:44:04;;;;;;;20.02;15.75;;;25.90;99.90;;;;;;4997666;28;20085;-77
2023/09/09 11:46:43;;;;;;;20.42;18.17;;;26.00;99.90;;;;;;4981275;28;20029;-78
2023/09/09 11:49:10;;;;;;;21.50;17.98;;;26.00;99.90;;;;;;5015095;28;20100;-77
2023/09/09 11:51:36;;;;;;;21.00;17.83;;;26.10;99.90;;;;;;4997742;28;20544;-77
2023/09/09 11:54:03;;;;;;;21.02;18.38;;;26.10;99.90;;;;;;5015042;28;20038;-77
2023/09/09 11:56:31;;;;;;;21.50;18.25;;;26.20;99.90;;;;;;5015146;28;20438;-77
2023/09/09 11:58:57;;;;;;;22.38;20.00;;;26.20;99.90;;;;;;5015060;28;20041;-77
2023/09/09 12:01:23;;;;;;;24.35;20.63;;;26.20;99.90;;;;;;5014970;28;20473;-78
2023/09/09 12:03:50;;;;;;;24.85;22.23;;;26.30;99.90;;;;;;5014948;28;20088;-78
2023/09/09 12:06:18;;;;;;;22.92;20.63;;;26.30;99.90;;;;;;5014792;28;20034;-78
2023/09/09 12:08:44;;;;;;;22.42;20.02;;;26.30;99.90;;;;;;5013347;28;20516;-78
2023/09/09 12:11:12;;;;;;;18.83;16.92;;;26.30;99.90;;;;;;5014686;28;20405;-78
2023/09/09 12:13:38;;;;;;;19.85;16.80;;;26.30;99.90;;;;;;5014883;28;20555;-78
2023/09/09 12:16:08;;;;;;;20.83;17.65;;;26.40;99.90;;;;;;5014677;28;20081;-78
2023/09/09 12:18:33;;;;;;;19.70;17.00;;;26.40;99.90;;;;;;5013350;28;20038;-78
2023/09/09 12:21:05;;;;;;;19.08;17.10;;;26.40;99.90;;;;;;5014496;28;20038;-78
2023/09/09 12:23:33;;;;;;;18.73;16.63;;;26.40;99.90;;;;;;5014649;28;20099;-78
2023/09/09 12:26:08;;;;;;;17.27;15.43;;;26.40;99.90;;;;;;4980682;28;20046;-78
2023/09/09 12:28:33;;;;;;;19.02;17.13;;;26.40;99.90;;;;;;4996820;28;20394;-78
2023/09/09 12:30:59;;;;;;;17.02;15.10;;;26.40;99.90;;;;;;5014449;28;20037;-78